Flight Track Log - Related Links

Times and Time Zones

All times are in EST time to prevent confusion due to time zone crossing. See the N27XP flight status page for this flight to view local times or setup timezone preferences in your user account.

Time Position Orientation Groundspeed Altitude Reporting Facility
EST Latitude Longitude Course Direction KTS MPH feet Rate Location/Type
Mon 05:52:53 PM 35.2119 -79.8875 265° West 259 298 6,000  Level Atlanta Center
Mon 05:53:00 PM 35.2337 -79.7865 270° West  Level Estimated
Mon 05:54:00 PM 35.2329 -79.8529 270° West  Level Estimated
Mon 05:54:18 PM 35.2078 -80.0097 268° West 261 300 6,000  Level Atlanta Center
Mon 05:55:00 PM 35.2293 -79.9191 266° West  Level FlightAware Approximate
Mon 05:55:19 PM 35.2064 -80.0989 269° West 260 299 5,500  Level Atlanta Center
Mon 05:56:00 PM 35.2256 -79.9854 266° West  Level FlightAware Approximate
Mon 05:56:20 PM 35.1886 -80.1911 257° West 261 300 4,300  Level Atlanta Center
Mon 05:57:00 PM 35.2219 -80.0516 266° West  Level FlightAware Approximate
Mon 05:57:21 PM 35.1619 -80.2764 249° West 262 302 4,000  Level Atlanta Center
Mon 05:58:00 PM 35.2215 -80.1179 265° West  Level Estimated
Mon 05:58:22 PM 35.1372 -80.3561 249° West 263 303 4,000  Level Atlanta Center
Mon 05:59:22 PM 35.1128 -80.4408 251° West 265 305 4,000  Level Atlanta Center
Mon 06:00:23 PM 35.0881 -80.5283 251° West 265 305 4,000  Level Atlanta Center
Mon 06:01:30 PM 35.0617 -80.6258 252° West 262 302 4,000  Level Atlanta Center
Mon 06:02:19 PM 35.0569 -80.6894 265° West 248 285 4,000  Level Atlanta Center
Mon 06:03:19 PM 35.0467 -80.7661 261° West 205 236 4,000 -248 Level Atlanta Center
Mon 06:04:20 PM 35.0461 -80.8244 269° West 145 167 3,500 -750 Descending Atlanta Center
Mon 06:05:27 PM 35.0619 -80.8769 290° West 164 189 2,400 -563 Descending Atlanta Center
Mon 06:06:28 PM 35.0942 -80.9039 326° Northwest 130 150 2,300 -98 Descending Atlanta Center
Mon 06:07:29 PM 35.1239 -80.9281 326° Northwest 124 143 2,200 -310 Descending Atlanta Center
Mon 06:08:24 PM 35.1511 -80.9319 353° North 99 114 1,700 -541 Descending Atlanta Center
Mon 06:09:31 PM 35.1844 -80.9358 355° North 108 124 1,100 -537 Descending Atlanta Center

Login

Don't have an account? Register now (free) for customized features, flight alerts, and more!